createdAt,value
2017-08-01T00:01:57.896Z,68.92
2017-08-01T00:04:32.622Z,68.47
2017-08-01T00:07:07.358Z,69.10
2017-08-01T00:09:42.060Z,69.29
2017-08-01T00:12:16.881Z,69.94
2017-08-01T00:14:51.502Z,71.20
2017-08-01T00:17:26.274Z,71.06
2017-08-01T00:20:00.760Z,72.11
2017-08-01T00:22:35.308Z,71.82
2017-08-01T00:25:09.955Z,72.06
2017-08-01T00:27:44.896Z,71.80
2017-08-01T00:30:19.603Z,71.17
2017-08-01T00:33:03.694Z,70.79
2017-08-01T00:35:38.991Z,71.02
2017-08-01T00:38:13.744Z,70.74
2017-08-01T00:40:48.428Z,70.43
2017-08-01T00:43:23.083Z,70.06
2017-08-01T00:45:58.715Z,69.47
2017-08-01T00:48:34.396Z,68.69
2017-08-01T00:51:08.999Z,68.55
2017-08-01T00:53:43.571Z,68.34
2017-08-01T00:56:18.100Z,68.19
2017-08-01T00:58:52.739Z,68.14
2017-08-01T01:01:27.407Z,68.15
2017-08-01T01:04:02.143Z,68.46
2017-08-01T01:06:36.867Z,68.49
2017-08-01T01:09:11.545Z,68.60
2017-08-01T01:11:47.195Z,68.86
2017-08-01T01:14:21.958Z,69.63
2017-08-01T01:16:56.617Z,70.30
2017-08-01T01:19:31.330Z,69.93
2017-08-01T01:22:07.057Z,69.61
2017-08-01T01:24:41.784Z,69.58
2017-08-01T01:27:16.323Z,69.28
2017-08-01T01:29:51.071Z,69.02
2017-08-01T01:32:25.480Z,69.06
2017-08-01T01:35:00.202Z,69.17
2017-08-01T01:37:34.585Z,69.28
2017-08-01T01:40:09.162Z,69.32
2017-08-01T01:42:43.844Z,69.36
2017-08-01T01:45:19.295Z,69.22
2017-08-01T01:47:54.014Z,69.24
2017-08-01T01:50:28.458Z,69.53
2017-08-01T01:53:03.055Z,69.45
2017-08-01T01:55:38.011Z,69.44
2017-08-01T01:58:12.662Z,69.33
2017-08-01T02:00:47.323Z,69.27
2017-08-01T02:03:22.495Z,69.23
2017-08-01T02:05:58.374Z,69.07
2017-08-01T02:08:33.155Z,68.92
2017-08-01T02:11:07.907Z,68.76
2017-08-01T02:13:42.598Z,68.78
2017-08-01T02:16:17.291Z,68.60
2017-08-01T02:18:51.519Z,68.36
2017-08-01T02:21:25.994Z,68.14
2017-08-01T02:24:00.544Z,68.57
2017-08-01T02:26:35.146Z,69.13
2017-08-01T02:29:09.780Z,69.32
2017-08-01T02:31:44.172Z,69.02
2017-08-01T02:34:18.804Z,69.33
2017-08-01T02:36:53.628Z,69.36
2017-08-01T02:39:29.356Z,69.72
2017-08-01T02:42:05.002Z,69.55
2017-08-01T02:44:39.701Z,69.38
2017-08-01T02:47:14.483Z,69.21
2017-08-01T02:49:49.161Z,69.19
2017-08-01T02:52:23.906Z,68.98
2017-08-01T02:54:58.398Z,69.10
2017-08-01T02:57:33.180Z,69.38
2017-08-01T03:00:07.883Z,69.35
2017-08-01T03:02:42.579Z,70.09
2017-08-01T03:05:17.072Z,70.97
2017-08-01T03:07:51.868Z,71.09
2017-08-01T03:10:26.584Z,70.96
2017-08-01T03:13:02.519Z,70.33
2017-08-01T03:15:36.943Z,70.05
2017-08-01T03:18:12.847Z,69.65
2017-08-01T03:20:47.537Z,69.19
2017-08-01T03:23:22.295Z,68.73
2017-08-01T03:25:57.711Z,68.62
2017-08-01T03:28:32.316Z,68.67
2017-08-01T03:31:06.980Z,68.79
2017-08-01T03:33:41.714Z,69.18
2017-08-01T03:36:16.263Z,68.97
2017-08-01T03:38:50.935Z,69.19
2017-08-01T03:41:25.559Z,69.36
2017-08-01T03:44:00.351Z,69.35
2017-08-01T03:46:35.106Z,69.24
2017-08-01T03:49:09.860Z,69.22
2017-08-01T03:51:44.318Z,69.27
2017-08-01T03:54:19.066Z,69.36
2017-08-01T03:56:54.758Z,70.17
2017-08-01T03:59:29.407Z,69.74
2017-08-01T04:02:04.185Z,69.61
2017-08-01T04:04:39.568Z,69.98
2017-08-01T04:07:14.194Z,70.15
2017-08-01T04:09:49.185Z,70.13
2017-08-01T04:12:24.488Z,69.92
2017-08-01T04:15:00.317Z,70.22
2017-08-01T04:17:35.129Z,70.48
2017-08-01T04:20:10.959Z,70.68
2017-08-01T04:22:45.586Z,70.96
2017-08-01T04:25:20.287Z,71.10
2017-08-01T04:27:54.822Z,71.07
2017-08-01T04:30:29.572Z,71.14
2017-08-01T04:33:04.166Z,71.23
2017-08-01T04:35:38.900Z,71.21
2017-08-01T04:38:13.135Z,71.19
2017-08-01T04:40:48.133Z,71.35
2017-08-01T04:43:22.766Z,71.26
2017-08-01T04:45:56.844Z,71.50
2017-08-01T04:48:31.902Z,71.67
2017-08-01T04:51:06.471Z,71.76
2017-08-01T04:53:41.102Z,72.18
2017-08-01T04:56:15.806Z,72.19
2017-08-01T04:58:50.547Z,72.25
2017-08-01T05:01:25.274Z,72.02
2017-08-01T05:03:59.980Z,72.06
2017-08-01T05:06:34.690Z,71.79
2017-08-01T05:09:09.088Z,71.57
2017-08-01T05:11:44.166Z,71.91
2017-08-01T05:14:18.690Z,72.04
2017-08-01T05:16:53.455Z,72.52
2017-08-01T05:19:28.222Z,72.85
2017-08-01T05:22:02.899Z,72.58
2017-08-01T05:24:37.479Z,71.90
2017-08-01T05:27:12.150Z,71.64
2017-08-01T05:29:47.791Z,71.65
2017-08-01T05:32:22.567Z,71.89
2017-08-01T05:34:57.420Z,72.25
2017-08-01T05:37:33.206Z,72.15
2017-08-01T05:40:07.999Z,72.06
2017-08-01T05:42:42.823Z,72.09
2017-08-01T05:45:18.512Z,72.25
2017-08-01T05:47:54.099Z,71.91
2017-08-01T05:50:28.814Z,71.38
2017-08-01T05:53:03.334Z,70.97
2017-08-01T05:55:38.046Z,70.79
2017-08-01T05:58:12.794Z,70.46
2017-08-01T06:00:48.478Z,70.09
2017-08-01T06:03:23.144Z,69.94
2017-08-01T06:05:57.830Z,69.83
2017-08-01T06:08:33.682Z,68.85
2017-08-01T06:11:08.451Z,68.57
2017-08-01T06:13:42.992Z,68.12
2017-08-01T06:16:17.615Z,67.51
2017-08-01T06:18:53.273Z,67.93
2017-08-01T06:21:27.900Z,67.66
2017-08-01T06:24:02.331Z,67.20
2017-08-01T06:26:36.838Z,66.89
2017-08-01T06:29:12.697Z,66.55
2017-08-01T06:31:48.818Z,66.62
2017-08-01T06:34:23.925Z,66.49
2017-08-01T06:36:59.574Z,65.60
2017-08-01T06:39:34.190Z,65.20
2017-08-01T06:42:08.755Z,65.23
2017-08-01T06:44:43.508Z,64.95
2017-08-01T06:47:18.043Z,64.69
2017-08-01T06:49:52.729Z,64.34
2017-08-01T06:52:27.351Z,63.48
2017-08-01T06:55:01.991Z,62.56
2017-08-01T06:57:36.350Z,61.93
2017-08-01T07:00:11.283Z,62.47
2017-08-01T07:02:45.968Z,62.42
2017-08-01T07:05:20.651Z,62.60
2017-08-01T07:07:56.411Z,62.26
2017-08-01T07:10:31.183Z,62.43
2017-08-01T07:13:05.366Z,62.58
2017-08-01T07:15:40.074Z,62.87
2017-08-01T07:18:14.682Z,62.66
2017-08-01T07:20:50.307Z,62.05
2017-08-01T07:23:24.983Z,61.68
2017-08-01T07:25:59.663Z,61.13
2017-08-01T07:28:34.279Z,61.34
2017-08-01T07:31:09.036Z,60.85
2017-08-01T07:33:43.859Z,62.05
2017-08-01T07:36:18.479Z,62.65
2017-08-01T07:38:53.196Z,61.55
2017-08-01T07:41:27.738Z,60.60
2017-08-01T07:44:02.362Z,60.12
2017-08-01T07:46:36.946Z,59.73
2017-08-01T07:49:11.623Z,58.10
2017-08-01T07:51:46.467Z,59.43
2017-08-01T07:54:21.159Z,59.45
2017-08-01T07:56:55.623Z,58.75
2017-08-01T07:59:30.219Z,58.06
2017-08-01T08:02:04.861Z,57.15
2017-08-01T08:04:39.493Z,56.87
2017-08-01T08:07:14.084Z,56.98
2017-08-01T08:09:48.838Z,55.10
2017-08-01T08:12:23.454Z,56.11
2017-08-01T08:14:58.084Z,56.02
2017-08-01T08:17:32.832Z,56.25
2017-08-01T08:20:07.296Z,55.98
2017-08-01T08:22:42.820Z,56.02
2017-08-01T08:25:17.508Z,56.50
2017-08-01T08:27:52.019Z,56.97
2017-08-01T08:30:26.778Z,56.74
2017-08-01T08:33:01.437Z,55.77
2017-08-01T08:35:36.041Z,55.71
2017-08-01T08:38:10.756Z,55.56
2017-08-01T08:40:45.248Z,55.18
2017-08-01T08:43:19.858Z,55.71
2017-08-01T08:45:54.460Z,55.29
2017-08-01T08:48:30.178Z,56.57
2017-08-01T08:51:04.792Z,57.17
2017-08-01T08:53:39.351Z,56.70
2017-08-01T08:56:14.097Z,57.20
2017-08-01T08:58:48.988Z,56.42
2017-08-01T09:01:23.508Z,55.35
2017-08-01T09:03:58.212Z,55.65
2017-08-01T09:06:32.836Z,55.67
2017-08-01T09:09:07.590Z,55.11
2017-08-01T09:11:42.190Z,55.06
2017-08-01T09:14:16.963Z,56.29
2017-08-01T09:16:51.638Z,56.32
2017-08-01T09:19:26.301Z,56.28
2017-08-01T09:22:00.827Z,56.52
2017-08-01T09:24:35.402Z,55.99
2017-08-01T09:27:10.063Z,55.76
2017-08-01T09:29:44.820Z,55.66
2017-08-01T09:32:19.419Z,56.52
2017-08-01T09:34:53.945Z,55.70
2017-08-01T09:37:29.708Z,54.41
2017-08-01T09:40:05.471Z,54.39
2017-08-01T09:42:40.133Z,54.44
2017-08-01T09:45:14.436Z,55.09
2017-08-01T09:47:49.343Z,55.04
2017-08-01T09:50:24.048Z,54.52
2017-08-01T09:52:58.694Z,54.89
2017-08-01T09:55:33.451Z,55.28
2017-08-01T09:58:08.060Z,55.62
2017-08-01T10:00:42.752Z,55.75
2017-08-01T10:03:17.259Z,56.07
2017-08-01T10:05:52.044Z,56.87
2017-08-01T10:08:26.519Z,56.19
2017-08-01T10:11:01.285Z,56.91
2017-08-01T10:13:37.004Z,57.74
2017-08-01T10:16:11.846Z,58.63
2017-08-01T10:18:46.487Z,59.07
2017-08-01T10:21:22.398Z,59.46
2017-08-01T10:23:57.051Z,59.63
2017-08-01T10:26:32.086Z,60.03
2017-08-01T10:29:07.308Z,59.18
2017-08-01T10:31:43.109Z,59.57
2017-08-01T10:34:17.804Z,58.92
2017-08-01T10:36:52.027Z,59.38
2017-08-01T10:39:27.119Z,59.60
2017-08-01T10:42:01.424Z,59.22
2017-08-01T10:44:37.144Z,58.77
2017-08-01T10:47:11.912Z,59.36
2017-08-01T10:49:46.607Z,59.05
2017-08-01T10:52:21.342Z,58.19
2017-08-01T10:54:56.954Z,58.63
2017-08-01T10:57:31.882Z,58.21
2017-08-01T11:00:06.543Z,58.50
2017-08-01T11:02:41.206Z,58.48
2017-08-01T11:05:15.754Z,58.39
2017-08-01T11:07:50.459Z,58.00
2017-08-01T11:10:25.147Z,56.93
2017-08-01T11:12:59.779Z,56.56
2017-08-01T11:15:34.406Z,57.73
2017-08-01T11:18:09.118Z,57.29
2017-08-01T11:20:43.848Z,58.63
2017-08-01T11:23:18.615Z,58.45
2017-08-01T11:25:53.237Z,58.19
2017-08-01T11:28:28.047Z,56.64
2017-08-01T11:31:02.819Z,57.40
2017-08-01T11:33:38.650Z,54.41
2017-08-01T11:36:13.005Z,53.90
2017-08-01T11:38:47.915Z,52.94
2017-08-01T11:41:23.559Z,50.28
2017-08-01T11:43:58.277Z,50.91
2017-08-01T11:46:32.964Z,50.81
2017-08-01T11:49:07.679Z,48.89
2017-08-01T11:51:42.315Z,49.11
2017-08-01T11:54:17.838Z,50.13
2017-08-01T11:56:52.532Z,50.25
2017-08-01T11:59:27.152Z,51.00
2017-08-01T12:02:01.816Z,49.25
2017-08-01T12:04:36.455Z,50.08
2017-08-01T12:07:11.175Z,51.07
2017-08-01T12:09:45.809Z,50.92
2017-08-01T12:12:20.480Z,51.67
2017-08-01T12:14:55.115Z,52.61
2017-08-01T12:17:29.762Z,52.00
2017-08-01T12:20:04.495Z,51.37
2017-08-01T12:22:39.169Z,51.74
2017-08-01T12:25:13.822Z,52.81
2017-08-01T12:27:48.512Z,51.91
2017-08-01T12:30:23.700Z,52.79
2017-08-01T12:32:58.924Z,53.28
2017-08-01T12:35:34.599Z,53.51
2017-08-01T12:38:09.125Z,53.42
2017-08-01T12:40:43.935Z,53.72
2017-08-01T12:43:18.547Z,54.66
2017-08-01T12:45:53.283Z,54.61
2017-08-01T12:48:28.115Z,55.85
2017-08-01T12:51:03.750Z,55.82
2017-08-01T12:53:38.432Z,57.03
2017-08-01T12:56:13.043Z,57.34
2017-08-01T12:58:47.848Z,58.00
2017-08-01T13:01:23.541Z,57.91
2017-08-01T13:03:58.305Z,58.47
2017-08-01T13:06:33.047Z,59.72
2017-08-01T13:09:07.888Z,59.55
2017-08-01T13:11:42.644Z,59.67
2017-08-01T13:14:17.295Z,58.93
2017-08-01T13:16:52.313Z,59.39
2017-08-01T13:19:27.021Z,59.38
2017-08-01T13:22:01.639Z,59.88
2017-08-01T13:24:36.452Z,59.92
2017-08-01T13:27:11.186Z,58.48
2017-08-01T13:29:45.844Z,59.00
2017-08-01T13:32:20.584Z,58.62
2017-08-01T13:34:55.372Z,59.58
2017-08-01T13:37:30.198Z,57.59
2017-08-01T13:40:05.724Z,57.66
2017-08-01T13:42:40.346Z,57.40
2017-08-01T13:45:14.994Z,57.91
2017-08-01T13:47:49.629Z,57.61
2017-08-01T13:50:24.143Z,58.12
2017-08-01T13:52:58.879Z,57.22
2017-08-01T13:55:33.585Z,57.35
2017-08-01T13:58:08.172Z,57.24
2017-08-01T14:00:42.721Z,57.15
2017-08-01T14:03:17.459Z,57.42
2017-08-01T14:05:52.079Z,56.48
2017-08-01T14:08:26.819Z,55.88
2017-08-01T14:11:01.635Z,55.25
2017-08-01T14:13:36.193Z,52.69
2017-08-01T14:16:10.822Z,52.79
2017-08-01T14:18:45.563Z,53.64
2017-08-01T14:21:19.980Z,54.10
2017-08-01T14:23:54.683Z,53.66
2017-08-01T14:26:29.212Z,53.99
2017-08-01T14:29:03.862Z,54.03
2017-08-01T14:31:38.468Z,53.83
2017-08-01T14:34:13.019Z,54.47
2017-08-01T14:36:47.703Z,55.16
2017-08-01T14:39:23.332Z,55.93
2017-08-01T14:41:57.975Z,57.46
2017-08-01T14:44:32.759Z,60.83
2017-08-01T14:47:07.571Z,63.11
2017-08-01T14:49:43.285Z,64.74
2017-08-01T14:52:17.836Z,65.27
2017-08-01T14:54:52.628Z,65.89
2017-08-01T14:57:27.288Z,66.19
2017-08-01T15:00:02.116Z,66.04
2017-08-01T15:02:36.791Z,66.22
2017-08-01T15:05:11.524Z,66.12
2017-08-01T15:07:46.199Z,65.83
2017-08-01T15:10:21.067Z,64.68
2017-08-01T15:12:55.654Z,65.33
2017-08-01T15:15:30.522Z,66.44
2017-08-01T15:18:05.276Z,67.78
2017-08-01T15:20:40.144Z,68.13
2017-08-01T15:23:15.144Z,68.64
2017-08-01T15:25:49.947Z,68.93
2017-08-01T15:28:24.756Z,69.54
2017-08-01T15:30:59.430Z,69.93
2017-08-01T15:33:34.071Z,71.21
2017-08-01T15:36:08.815Z,72.29
2017-08-01T15:38:43.604Z,72.39
2017-08-01T15:41:18.335Z,72.70
2017-08-01T15:43:53.131Z,72.93
2017-08-01T15:46:28.108Z,72.81
2017-08-01T15:49:02.797Z,72.67
2017-08-01T15:51:37.580Z,72.98
2017-08-01T15:54:12.282Z,72.61
2017-08-01T15:56:47.122Z,72.02
2017-08-01T15:59:21.843Z,72.19
2017-08-01T16:01:56.568Z,71.89
2017-08-01T16:04:31.302Z,71.71
2017-08-01T16:07:06.105Z,71.77
2017-08-01T16:09:41.834Z,72.05
2017-08-01T16:12:16.551Z,72.74
2017-08-01T16:14:51.348Z,72.85
2017-08-01T16:17:26.093Z,72.16
2017-08-01T16:20:01.800Z,72.49
2017-08-01T16:22:37.704Z,72.05
2017-08-01T16:25:13.407Z,70.93
2017-08-01T16:27:48.264Z,70.96
2017-08-01T16:30:23.090Z,71.04
2017-08-01T16:32:57.908Z,71.22
2017-08-01T16:35:32.595Z,71.53
2017-08-01T16:38:07.343Z,72.24
2017-08-01T16:40:42.080Z,71.90
2017-08-01T16:43:17.831Z,71.00
2017-08-01T16:45:52.767Z,69.83
2017-08-01T16:48:27.402Z,69.65
2017-08-01T16:51:02.115Z,69.28
2017-08-01T16:53:36.863Z,69.19
2017-08-01T16:56:11.723Z,69.58
2017-08-01T16:58:46.511Z,70.16
2017-08-01T17:01:21.354Z,69.34
2017-08-01T17:03:56.115Z,70.20
2017-08-01T17:06:31.844Z,70.56
2017-08-01T17:09:06.726Z,70.75
2017-08-01T17:11:41.523Z,70.22
2017-08-01T17:14:16.139Z,70.11
2017-08-01T17:16:51.851Z,69.94
2017-08-01T17:19:26.707Z,69.95
2017-08-01T17:22:01.512Z,70.35
2017-08-01T17:24:36.200Z,70.25
2017-08-01T17:27:11.048Z,70.47
2017-08-01T17:29:45.795Z,70.25
2017-08-01T17:32:20.622Z,70.06
2017-08-01T17:34:55.424Z,70.40
2017-08-01T17:37:31.226Z,70.36
2017-08-01T17:40:07.053Z,70.39
2017-08-01T17:42:41.782Z,70.67
2017-08-01T17:45:16.564Z,70.84
2017-08-01T17:47:51.318Z,71.15
2017-08-01T17:50:26.061Z,71.04
2017-08-01T17:53:00.780Z,70.90
2017-08-01T17:55:35.610Z,70.73
2017-08-01T17:58:10.415Z,70.66
2017-08-01T18:00:45.150Z,70.43
2017-08-01T18:03:20.850Z,70.19
2017-08-01T18:05:55.560Z,69.73
2017-08-01T18:08:31.324Z,69.28
2017-08-01T18:11:06.070Z,69.22
2017-08-01T18:13:40.907Z,68.97
2017-08-01T18:16:16.556Z,68.72
2017-08-01T18:18:51.364Z,68.75
2017-08-01T18:21:26.219Z,68.85
2017-08-01T18:24:00.870Z,68.62
2017-08-01T18:26:35.511Z,66.92
2017-08-01T18:29:10.184Z,67.42
2017-08-01T18:31:45.951Z,66.10
2017-08-01T18:34:21.891Z,67.86
2017-08-01T18:36:57.007Z,68.64
2017-08-01T18:39:32.039Z,70.03
2017-08-01T18:42:07.370Z,70.72
2017-08-01T18:44:41.874Z,70.94
2017-08-01T18:47:16.683Z,70.18
2017-08-01T18:49:51.480Z,70.94
2017-08-01T18:52:27.276Z,70.96
2017-08-01T18:55:01.920Z,71.15
2017-08-01T19:00:15.534Z,71.35
2017-08-01T19:02:50.283Z,71.21
2017-08-01T19:05:25.138Z,70.88
2017-08-01T19:07:59.944Z,70.29
2017-08-01T19:10:34.651Z,70.57
2017-08-01T19:13:09.400Z,70.07
2017-08-01T19:15:44.006Z,69.91
2017-08-01T19:18:18.651Z,69.87
2017-08-01T19:20:53.397Z,69.97
2017-08-01T19:23:28.083Z,69.36
2017-08-01T19:26:02.840Z,69.44
2017-08-01T19:28:37.700Z,69.59
2017-08-01T19:31:13.428Z,69.42
2017-08-01T19:33:48.634Z,69.93
2017-08-01T19:36:23.783Z,70.38
2017-08-01T19:38:58.408Z,70.70
2017-08-01T19:41:33.136Z,70.39
2017-08-01T19:44:07.890Z,70.76
2017-08-01T19:46:42.691Z,71.07
2017-08-01T19:49:17.418Z,71.39
2017-08-01T19:51:52.083Z,71.51
2017-08-01T19:54:26.808Z,71.59
2017-08-01T19:57:01.639Z,71.78
2017-08-01T19:59:36.335Z,71.77
2017-08-01T20:02:11.131Z,72.00
2017-08-01T20:04:45.795Z,72.06
2017-08-01T20:07:20.527Z,72.03
2017-08-01T20:09:55.260Z,72.16
2017-08-01T20:12:29.791Z,72.40
2017-08-01T20:15:04.516Z,72.85
2017-08-01T20:17:39.217Z,73.04
2017-08-01T20:20:13.891Z,73.48
2017-08-01T20:22:48.580Z,73.52
2017-08-01T20:25:23.427Z,73.84
2017-08-01T20:27:58.155Z,73.70
2017-08-01T20:30:32.784Z,73.87
2017-08-01T20:33:07.620Z,73.84
2017-08-01T20:35:43.339Z,73.49
2017-08-01T20:38:18.099Z,73.19
2017-08-01T20:40:52.818Z,73.28
2017-08-01T20:43:27.548Z,73.73
2017-08-01T20:46:02.174Z,73.94
2017-08-01T20:48:36.887Z,73.83
2017-08-01T20:51:11.559Z,73.77
2017-08-01T20:53:47.244Z,73.77
2017-08-01T20:56:22.015Z,75.29
2017-08-01T20:58:56.862Z,75.52
2017-08-01T21:01:31.603Z,75.13
2017-08-01T21:04:06.303Z,75.04
2017-08-01T21:06:41.051Z,75.26
2017-08-01T21:09:15.680Z,74.84
2017-08-01T21:11:50.384Z,74.78
2017-08-01T21:14:26.140Z,74.70
2017-08-01T21:17:00.963Z,74.62
2017-08-01T21:19:35.699Z,74.74
2017-08-01T21:22:10.438Z,74.55
2017-08-01T21:24:44.918Z,74.83
2017-08-01T21:27:19.715Z,74.76
2017-08-01T21:29:54.358Z,74.54
2017-08-01T21:32:29.686Z,74.24
2017-08-01T21:35:04.919Z,74.18
2017-08-01T21:37:39.651Z,73.35
2017-08-01T21:40:14.224Z,72.79
2017-08-01T21:42:48.747Z,72.35
2017-08-01T21:45:23.364Z,72.05
2017-08-01T21:47:58.079Z,71.57
2017-08-01T21:50:32.783Z,71.23
2017-08-01T21:53:08.487Z,70.98
2017-08-01T21:55:43.238Z,70.75
2017-08-01T21:58:17.942Z,70.42
2017-08-01T22:00:53.579Z,70.18
2017-08-01T22:03:28.294Z,69.99
2017-08-01T22:06:03.035Z,69.88
2017-08-01T22:08:37.779Z,69.57
2017-08-01T22:11:12.530Z,69.50
2017-08-01T22:13:47.241Z,69.46
2017-08-01T22:16:22.776Z,69.95
2017-08-01T22:18:57.515Z,70.07
2017-08-01T22:21:32.236Z,70.23
2017-08-01T22:24:07.170Z,70.43
2017-08-01T22:26:41.932Z,70.15
2017-08-01T22:29:17.755Z,69.91
2017-08-01T22:31:52.560Z,69.70
2017-08-01T22:34:27.215Z,69.47
2017-08-01T22:37:01.992Z,69.34
2017-08-01T22:39:36.668Z,69.33
2017-08-01T22:42:11.375Z,69.42
2017-08-01T22:44:46.142Z,69.52
2017-08-01T22:47:20.902Z,69.62
2017-08-01T22:49:56.607Z,69.92
2017-08-01T22:52:31.330Z,69.89
2017-08-01T22:55:05.982Z,69.96
2017-08-01T22:57:40.665Z,70.09
2017-08-01T23:00:15.316Z,70.50
2017-08-01T23:02:50.042Z,71.13
2017-08-01T23:05:24.874Z,71.40
2017-08-01T23:07:59.655Z,71.26
2017-08-01T23:10:34.344Z,71.42
2017-08-01T23:13:09.040Z,71.15
2017-08-01T23:15:44.712Z,71.12
2017-08-01T23:18:19.387Z,70.99
2017-08-01T23:20:55.119Z,70.72
2017-08-01T23:23:29.748Z,70.75
2017-08-01T23:26:04.507Z,70.43
2017-08-01T23:28:39.279Z,70.85
2017-08-01T23:31:14.814Z,71.69
2017-08-01T23:33:49.360Z,73.21
2017-08-01T23:36:24.103Z,75.26
2017-08-01T23:38:58.819Z,76.49
2017-08-01T23:41:33.335Z,77.09
2017-08-01T23:44:08.100Z,77.47
2017-08-01T23:46:42.623Z,77.89
2017-08-01T23:49:17.511Z,78.03
2017-08-01T23:51:52.276Z,78.29
2017-08-01T23:54:26.823Z,78.35
2017-08-01T23:57:01.471Z,79.28
2017-08-01T23:59:36.221Z,79.01
